Time;durP1;ratioP1;P1;durP2;ratioP2;P2;SDS_P1;SDS_P2;PMS_P1;PMS_P2;Temp;Humidity;BMP_temperature;BMP_pressure;BME280_temperature;BME280_humidity;BME280_pressure;Samples;Min_cycle;Max_cycle;Signal;HPM_P1;HPM_P2
2021/01/05 00:00:22;;;;;;;28.88;12.57;;;0.50;99.90;;;;;;6161125;23;20022;-85
2021/01/05 00:02:48;;;;;;;33.42;13.90;;;0.50;99.90;;;;;;6161840;23;20072;-85
2021/01/05 00:05:15;;;;;;;31.30;12.88;;;0.50;99.90;;;;;;6135239;23;20026;-85
2021/01/05 00:07:41;;;;;;;33.17;12.15;;;0.50;99.90;;;;;;6134675;23;20026;-85
2021/01/05 00:10:09;;;;;;;26.55;12.23;;;0.60;99.90;;;;;;6133984;23;20037;-85
2021/01/05 00:12:35;;;;;;;35.95;14.60;;;0.70;99.90;;;;;;6134072;23;20045;-85
2021/01/05 00:15:04;;;;;;;33.63;13.05;;;0.60;99.90;;;;;;6133539;23;20056;-85
2021/01/05 00:17:31;;;;;;;33.65;14.35;;;0.60;99.90;;;;;;6159415;23;20094;-85
2021/01/05 00:19:57;;;;;;;38.38;14.65;;;0.60;99.90;;;;;;6132319;23;20092;-85
2021/01/05 00:22:23;;;;;;;30.55;13.13;;;0.60;99.90;;;;;;6158609;23;20068;-85
2021/01/05 00:24:49;;;;;;;35.67;14.23;;;0.50;99.90;;;;;;6158981;23;20049;-85
2021/01/05 00:27:15;;;;;;;31.77;12.98;;;0.60;99.90;;;;;;6159370;23;20026;-85
2021/01/05 00:29:42;;;;;;;37.55;13.93;;;0.60;99.90;;;;;;6158665;23;20100;-85
2021/01/05 00:32:21;;;;;;;29.75;13.05;;;0.60;99.90;;;;;;6132715;23;20025;-85
2021/01/05 00:34:48;;;;;;;32.38;13.25;;;0.50;99.90;;;;;;6157932;23;20045;-85
2021/01/05 00:37:15;;;;;;;31.70;13.15;;;0.50;99.90;;;;;;6158849;23;20021;-84
2021/01/05 00:39:46;;;;;;;35.22;14.15;;;0.50;99.90;;;;;;6132368;23;20026;-85
2021/01/05 00:42:13;;;;;;;30.85;12.88;;;0.50;99.90;;;;;;6158409;23;20096;-85
2021/01/05 00:44:40;;;;;;;32.30;13.25;;;0.50;99.90;;;;;;6158055;23;20027;-85
2021/01/05 00:47:06;;;;;;;31.45;13.45;;;0.60;99.90;;;;;;6158006;23;20453;-84
2021/01/05 00:49:32;;;;;;;36.70;14.27;;;0.50;99.90;;;;;;6158040;23;20022;-84
2021/01/05 00:51:59;;;;;;;38.22;14.90;;;0.50;99.90;;;;;;6131804;23;20500;-85
2021/01/05 00:54:30;;;;;;;32.75;13.40;;;0.50;99.90;;;;;;6133333;23;20435;-85
2021/01/05 00:57:02;;;;;;;30.42;13.73;;;0.50;99.90;;;;;;6158039;23;20056;-85
2021/01/05 00:59:29;;;;;;;28.23;12.38;;;0.50;99.90;;;;;;6131370;23;20037;-85
2021/01/05 01:01:56;;;;;;;27.73;12.70;;;0.50;99.90;;;;;;6157794;23;20407;-85
2021/01/05 01:04:24;;;;;;;28.48;13.32;;;0.50;99.90;;;;;;6158180;23;20052;-84
2021/01/05 01:06:50;;;;;;;33.88;13.18;;;0.50;99.90;;;;;;6131339;23;20048;-84
2021/01/05 01:09:16;;;;;;;27.73;11.75;;;0.40;99.90;;;;;;6131908;23;20025;-84
2021/01/05 01:12:22;;;;;;;29.50;11.43;;;0.50;99.90;;;;;;6131375;23;20037;-85
2021/01/05 01:14:50;;;;;;;30.00;12.23;;;0.50;99.90;;;;;;6131277;23;20037;-84
2021/01/05 01:17:17;;;;;;;24.48;11.55;;;0.40;99.90;;;;;;6129820;23;20528;-84
2021/01/05 01:19:44;;;;;;;25.85;12.07;;;0.40;99.90;;;;;;6129779;23;20018;-84
2021/01/05 01:22:10;;;;;;;24.02;10.93;;;0.50;99.90;;;;;;6129789;23;20017;-84
2021/01/05 01:24:37;;;;;;;22.95;11.40;;;0.50;99.90;;;;;;6155569;23;20337;-84
2021/01/05 01:27:18;;;;;;;20.67;10.75;;;0.50;99.90;;;;;;6132773;23;20060;-84
2021/01/05 01:29:44;;;;;;;20.77;9.75;;;0.50;99.90;;;;;;6156197;23;20061;-84
2021/01/05 01:32:11;;;;;;;23.60;10.13;;;0.60;99.90;;;;;;6161788;23;20025;-86
2021/01/05 01:34:38;;;;;;;25.42;11.02;;;0.60;99.90;;;;;;6136529;23;20026;-86
2021/01/05 01:37:10;;;;;;;18.83;10.05;;;0.60;99.90;;;;;;6135461;23;20017;-85
2021/01/05 01:39:38;;;;;;;19.95;8.95;;;0.60;99.90;;;;;;6135611;23;20464;-85
2021/01/05 01:42:07;;;;;;;17.90;9.50;;;0.60;99.90;;;;;;6160985;23;20401;-85
2021/01/05 01:44:36;;;;;;;17.45;9.23;;;0.60;99.90;;;;;;6160361;23;20056;-85
2021/01/05 01:47:26;;;;;;;18.08;9.60;;;0.70;99.90;;;;;;6160078;23;20025;-85
2021/01/05 01:49:56;;;;;;;18.45;9.02;;;0.70;99.90;;;;;;6159374;23;20025;-85
2021/01/05 01:53:10;;;;;;;17.25;9.70;;;0.70;99.90;;;;;;6159855;23;20072;-85
2021/01/05 01:55:43;;;;;;;17.80;9.38;;;0.70;99.90;;;;;;6105783;23;20032;-85
2021/01/05 01:58:30;;;;;;;18.70;9.88;;;0.70;99.90;;;;;;6159230;23;20384;-85
2021/01/05 02:01:09;;;;;;;17.75;9.77;;;0.60;99.90;;;;;;6131766;23;20022;-85
2021/01/05 02:03:38;;;;;;;19.20;10.27;;;0.60;99.90;;;;;;6132482;23;20056;-84
2021/01/05 02:06:23;;;;;;;17.23;9.80;;;0.50;99.90;;;;;;6157837;23;20487;-84
2021/01/05 02:09:20;;;;;;;19.23;9.70;;;0.60;99.90;;;;;;6131923;23;20107;-84
2021/01/05 02:12:00;;;;;;;20.05;10.23;;;0.50;99.90;;;;;;6131712;23;20100;-85
2021/01/05 02:14:43;;;;;;;22.65;10.68;;;0.50;99.90;;;;;;6131627;23;20080;-84
2021/01/05 02:17:38;;;;;;;18.25;10.18;;;0.50;99.90;;;;;;6131749;23;20093;-85
2021/01/05 02:20:29;;;;;;;21.05;10.15;;;0.50;99.90;;;;;;6131475;23;20089;-84
2021/01/05 02:23:16;;;;;;;22.13;10.32;;;0.50;99.90;;;;;;6131119;23;20059;-85
2021/01/05 02:25:51;;;;;;;19.55;10.13;;;0.50;99.90;;;;;;6130814;23;20024;-85
2021/01/05 02:28:20;;;;;;;16.00;9.32;;;0.50;99.90;;;;;;6130388;23;20017;-84
2021/01/05 02:30:58;;;;;;;19.08;10.75;;;0.50;99.90;;;;;;6130012;23;20037;-84
2021/01/05 02:33:43;;;;;;;18.48;9.43;;;0.50;99.90;;;;;;6130160;23;20029;-84
2021/01/05 02:36:32;;;;;;;17.63;9.38;;;0.50;99.90;;;;;;6130272;23;20037;-85
2021/01/05 02:39:23;;;;;;;16.25;9.57;;;0.60;99.90;;;;;;6130085;23;20052;-84
2021/01/05 02:42:36;;;;;;;17.15;9.38;;;0.60;99.90;;;;;;6155792;23;20101;-84
2021/01/05 02:45:20;;;;;;;13.30;8.23;;;0.60;99.90;;;;;;6132425;23;20017;-84
2021/01/05 02:48:14;;;;;;;12.93;8.20;;;0.70;99.90;;;;;;6131867;23;20548;-85
2021/01/05 02:51:17;;;;;;;13.45;8.23;;;0.60;99.90;;;;;;6157870;23;20516;-84
2021/01/05 02:53:53;;;;;;;15.70;8.50;;;0.60;99.90;;;;;;6132027;23;20076;-84
2021/01/05 02:56:48;;;;;;;13.05;7.90;;;0.50;99.90;;;;;;6158004;23;20045;-83
2021/01/05 02:59:40;;;;;;;16.92;9.15;;;0.40;99.90;;;;;;6131425;23;20072;-84
2021/01/05 03:02:18;;;;;;;17.50;9.23;;;0.40;99.90;;;;;;6157258;23;20022;-84
2021/01/05 03:04:44;;;;;;;17.80;10.23;;;0.40;99.90;;;;;;6157277;23;20360;-84
2021/01/05 03:07:16;;;;;;;16.40;8.88;;;0.40;99.90;;;;;;6131289;23;20021;-84
2021/01/05 03:10:09;;;;;;;18.58;9.45;;;0.40;99.90;;;;;;6131046;23;20044;-84
2021/01/05 03:13:06;;;;;;;19.67;9.82;;;0.40;99.90;;;;;;6157006;23;20528;-84
2021/01/05 03:15:47;;;;;;;20.50;10.00;;;0.40;99.90;;;;;;6157025;23;20092;-84
2021/01/05 03:18:43;;;;;;;22.15;11.13;;;0.40;99.90;;;;;;6134396;23;20052;-85
2021/01/05 03:21:23;;;;;;;22.67;10.15;;;0.40;99.90;;;;;;6137581;23;20057;-86
2021/01/05 03:23:51;;;;;;;22.70;10.45;;;0.30;99.90;;;;;;6161673;23;20049;-85
2021/01/05 03:26:22;;;;;;;22.02;11.07;;;0.30;99.90;;;;;;6136140;23;20334;-85
2021/01/05 03:28:49;;;;;;;20.75;10.18;;;0.30;99.90;;;;;;6161547;23;20022;-84
2021/01/05 03:31:31;;;;;;;19.73;9.77;;;0.30;99.90;;;;;;6135231;23;20095;-85
2021/01/05 03:34:00;;;;;;;17.33;9.32;;;0.40;99.90;;;;;;6161046;23;20021;-84
2021/01/05 03:36:27;;;;;;;20.63;10.07;;;0.40;99.90;;;;;;6134147;23;20024;-85
2021/01/05 03:38:53;;;;;;;19.70;9.63;;;0.30;99.90;;;;;;6133939;23;20052;-84
2021/01/05 03:41:21;;;;;;;18.58;8.88;;;0.30;99.90;;;;;;6134611;23;20025;-84
2021/01/05 03:43:47;;;;;;;18.27;9.10;;;0.30;99.90;;;;;;6133276;23;20378;-84
2021/01/05 03:46:14;;;;;;;21.73;10.23;;;0.40;99.90;;;;;;6133532;23;20041;-84
2021/01/05 03:48:40;;;;;;;19.63;9.65;;;0.40;99.90;;;;;;6133531;23;20072;-84
2021/01/05 03:51:07;;;;;;;18.10;9.40;;;0.40;99.90;;;;;;6160027;23;20403;-83
2021/01/05 03:53:33;;;;;;;23.00;10.18;;;0.40;99.90;;;;;;6132861;23;20045;-84
2021/01/05 03:55:59;;;;;;;20.75;9.95;;;0.40;99.90;;;;;;6132143;23;20044;-84
2021/01/05 03:58:25;;;;;;;19.88;10.52;;;0.30;99.90;;;;;;6158872;23;20104;-84
2021/01/05 04:00:52;;;;;;;22.13;11.50;;;0.40;99.90;;;;;;6158285;23;20028;-84
2021/01/05 04:03:18;;;;;;;23.73;10.65;;;0.40;99.90;;;;;;6131958;23;20464;-84
2021/01/05 04:05:44;;;;;;;23.42;11.38;;;0.30;99.90;;;;;;6132322;23;20049;-83
2021/01/05 04:08:10;;;;;;;26.95;11.13;;;0.40;99.90;;;;;;6132057;23;20326;-83
2021/01/05 04:10:37;;;;;;;31.67;11.48;;;0.30;99.90;;;;;;6157668;23;20114;-84
2021/01/05 04:13:03;;;;;;;28.77;12.48;;;0.40;99.90;;;;;;6157653;23;20100;-84
2021/01/05 04:15:29;;;;;;;25.08;12.30;;;0.40;99.90;;;;;;6157161;23;20088;-83
2021/01/05 04:17:58;;;;;;;32.67;14.60;;;0.40;99.90;;;;;;6131408;23;20084;-84
2021/01/05 04:20:25;;;;;;;31.35;14.15;;;0.30;99.90;;;;;;6131239;23;20022;-83
2021/01/05 04:22:52;;;;;;;35.88;14.73;;;0.40;99.90;;;;;;6157275;23;20022;-84
2021/01/05 04:25:20;;;;;;;40.92;15.65;;;0.40;99.90;;;;;;6157106;23;20017;-83
2021/01/05 04:27:47;;;;;;;32.88;14.15;;;0.40;99.90;;;;;;6156916;23;20032;-85
2021/01/05 04:30:30;;;;;;;39.35;15.60;;;0.40;99.90;;;;;;6131669;23;20397;-84
2021/01/05 04:33:00;;;;;;;36.55;14.48;;;0.30;99.90;;;;;;6130810;23;20021;-84
2021/01/05 04:35:27;;;;;;;37.10;14.98;;;0.40;99.90;;;;;;6131337;23;20057;-83
2021/01/05 04:37:54;;;;;;;36.80;14.60;;;0.40;99.90;;;;;;6157172;23;20048;-83
2021/01/05 04:40:29;;;;;;;37.67;15.30;;;0.40;99.90;;;;;;6157082;23;20053;-84
2021/01/05 04:43:08;;;;;;;34.15;14.82;;;0.40;99.90;;;;;;6156947;23;20341;-83
2021/01/05 04:45:46;;;;;;;36.97;14.77;;;0.40;99.90;;;;;;6130982;23;20022;-84
2021/01/05 04:48:33;;;;;;;36.05;14.35;;;0.40;99.90;;;;;;6130959;23;20058;-83
2021/01/05 04:51:04;;;;;;;32.97;13.40;;;0.40;99.90;;;;;;6156904;23;20506;-84
2021/01/05 04:53:38;;;;;;;31.38;12.95;;;0.40;99.90;;;;;;6130894;23;20033;-83
2021/01/05 04:56:08;;;;;;;28.25;12.63;;;0.40;99.90;;;;;;6156709;23;20052;-84
2021/01/05 04:58:47;;;;;;;31.55;13.18;;;0.40;99.90;;;;;;6156672;23;20054;-84
2021/01/05 05:04:03;;;;;;;28.48;12.57;;;0.50;99.90;;;;;;6186595;23;20043;-81
2021/01/05 05:06:49;;;;;;;23.77;10.77;;;0.40;99.90;;;;;;6185788;23;20060;-81
2021/01/05 05:09:27;;;;;;;22.40;10.85;;;0.50;99.90;;;;;;6186502;23;20058;-81
2021/01/05 05:12:04;;;;;;;23.65;10.75;;;0.40;99.90;;;;;;6160410;23;20079;-81
2021/01/05 05:14:45;;;;;;;22.67;11.23;;;0.40;99.90;;;;;;6160130;23;20333;-81
2021/01/05 05:17:23;;;;;;;21.27;10.30;;;0.40;99.90;;;;;;6159510;23;20049;-81
2021/01/05 05:20:21;;;;;;;23.63;11.20;;;0.50;99.90;;;;;;6159677;23;20025;-81
2021/01/05 05:23:10;;;;;;;19.48;9.88;;;0.50;99.90;;;;;;6186691;23;20029;-81
2021/01/05 05:25:42;;;;;;;20.27;10.60;;;0.60;99.90;;;;;;6160770;23;20405;-81
2021/01/05 05:28:18;;;;;;;22.20;10.65;;;0.60;99.90;;;;;;6160272;23;20056;-81
2021/01/05 05:30:45;;;;;;;27.63;11.32;;;0.60;99.90;;;;;;6186729;23;20479;-81
2021/01/05 05:33:21;;;;;;;19.50;10.77;;;0.50;99.90;;;;;;6160083;23;20021;-81
2021/01/05 05:36:26;;;;;;;21.73;10.70;;;0.50;99.90;;;;;;6160838;23;20076;-81
2021/01/05 05:39:08;;;;;;;25.92;10.40;;;0.40;99.90;;;;;;6155112;23;20048;-81
2021/01/05 05:41:41;;;;;;;20.58;11.45;;;0.50;99.90;;;;;;6186979;23;20046;-81
2021/01/05 05:44:26;;;;;;;22.33;11.98;;;0.40;99.90;;;;;;6160625;23;20468;-80
2021/01/05 05:47:18;;;;;;;25.10;12.98;;;0.40;99.90;;;;;;6160787;23;20024;-80
2021/01/05 05:50:02;;;;;;;22.30;11.85;;;0.50;99.90;;;;;;6160530;23;20091;-80
2021/01/05 05:52:42;;;;;;;29.30;13.25;;;0.50;99.90;;;;;;6160469;23;20056;-81
2021/01/05 05:55:33;;;;;;;59.60;38.30;;;0.50;99.90;;;;;;6160745;23;20056;-80
2021/01/05 05:58:02;;;;;;;32.35;17.35;;;0.50;99.90;;;;;;6186564;23;20064;-81
2021/01/05 06:00:40;;;;;;;22.63;12.05;;;0.50;99.90;;;;;;6160105;23;20076;-81
2021/01/05 06:03:12;;;;;;;22.17;11.98;;;0.60;99.90;;;;;;6159962;23;20104;-80
2021/01/05 06:05:38;;;;;;;23.67;14.20;;;0.50;99.90;;;;;;6186477;23;20059;-81
2021/01/05 06:08:07;;;;;;;25.98;13.80;;;0.60;99.90;;;;;;6160751;23;20072;-80
2021/01/05 06:10:33;;;;;;;52.10;31.58;;;0.50;99.90;;;;;;6160279;23;20025;-80
2021/01/05 06:13:00;;;;;;;16.88;10.23;;;0.50;99.90;;;;;;6159816;23;20533;-80
2021/01/05 06:15:27;;;;;;;32.25;19.33;;;0.60;99.90;;;;;;6160067;23;20363;-80
2021/01/05 06:17:53;;;;;;;46.10;32.85;;;0.60;99.90;;;;;;6185924;23;20028;-80
2021/01/05 06:20:19;;;;;;;41.15;28.63;;;0.60;99.90;;;;;;6159997;23;20063;-80
2021/01/05 06:22:46;;;;;;;24.02;14.68;;;0.50;99.90;;;;;;6185898;23;20092;-80
2021/01/05 06:25:13;;;;;;;32.28;19.38;;;0.60;99.90;;;;;;6186238;23;20067;-80
2021/01/05 06:27:40;;;;;;;71.68;54.75;;;0.60;99.90;;;;;;6159779;23;20100;-80
2021/01/05 06:30:07;;;;;;;29.60;20.67;;;0.50;99.90;;;;;;6186663;23;20329;-80
2021/01/05 06:32:33;;;;;;;24.40;15.25;;;0.60;99.90;;;;;;6159880;23;20463;-79
2021/01/05 06:34:59;;;;;;;19.92;10.57;;;0.50;99.90;;;;;;6186616;23;20079;-80
2021/01/05 06:37:26;;;;;;;19.38;11.65;;;0.50;99.90;;;;;;6160726;23;20097;-79
2021/01/05 06:39:52;;;;;;;22.35;15.93;;;0.50;99.90;;;;;;6161599;23;20045;-80
2021/01/05 06:42:19;;;;;;;23.88;17.10;;;0.50;99.90;;;;;;6161455;23;20021;-79
2021/01/05 06:44:45;;;;;;;19.63;12.88;;;0.50;99.90;;;;;;6162496;23;20017;-79
2021/01/05 06:47:13;;;;;;;19.10;10.25;;;0.40;99.90;;;;;;6162144;23;20463;-79
2021/01/05 06:49:40;;;;;;;21.27;15.65;;;0.40;99.90;;;;;;6161253;23;20036;-80
2021/01/05 06:52:06;;;;;;;18.10;10.20;;;0.50;99.90;;;;;;6186640;23;20053;-80
2021/01/05 06:54:33;;;;;;;14.75;8.77;;;0.40;99.90;;;;;;6187739;23;20518;-80
2021/01/05 06:57:00;;;;;;;17.65;9.57;;;0.50;99.90;;;;;;6161261;23;20021;-81
2021/01/05 06:59:27;;;;;;;15.05;9.40;;;0.40;99.90;;;;;;6188194;23;20021;-82
2021/01/05 07:02:00;;;;;;;14.23;8.27;;;0.50;99.90;;;;;;6156058;23;20021;-82
2021/01/05 07:04:27;;;;;;;13.38;8.48;;;0.50;99.90;;;;;;6156352;23;20021;-84
2021/01/05 07:06:54;;;;;;;13.15;8.40;;;0.60;99.90;;;;;;6156761;23;20064;-84
2021/01/05 07:09:25;;;;;;;12.13;8.23;;;0.60;99.90;;;;;;6154956;23;20026;-84
2021/01/05 07:11:52;;;;;;;12.90;8.35;;;0.60;99.90;;;;;;6155840;23;20472;-84
2021/01/05 07:14:21;;;;;;;15.15;7.80;;;0.60;99.90;;;;;;6158247;23;20032;-85
2021/01/05 07:16:48;;;;;;;12.32;7.82;;;0.70;99.90;;;;;;6155877;23;20345;-85
2021/01/05 07:19:15;;;;;;;13.88;8.60;;;0.70;99.90;;;;;;6156397;23;20072;-85
2021/01/05 07:21:41;;;;;;;10.43;7.53;;;0.70;99.90;;;;;;6155788;23;20017;-85
2021/01/05 07:24:08;;;;;;;10.75;7.28;;;0.70;99.90;;;;;;6158323;23;20018;-85
2021/01/05 07:26:36;;;;;;;10.77;7.72;;;0.80;99.90;;;;;;6155576;23;20089;-85
2021/01/05 07:29:03;;;;;;;10.60;7.35;;;0.80;99.90;;;;;;6157841;23;20025;-84
2021/01/05 07:31:30;;;;;;;10.75;7.30;;;0.80;99.90;;;;;;6160339;23;20086;-85
2021/01/05 07:33:57;;;;;;;12.05;7.97;;;0.80;99.90;;;;;;6158116;23;20495;-85
2021/01/05 07:36:30;;;;;;;12.13;8.02;;;0.80;99.90;;;;;;6160729;23;20097;-85
2021/01/05 07:38:56;;;;;;;;;;;0.80;99.90;;;;;;6159357;23;20053;-85
2021/01/05 07:41:23;;;;;;;14.60;8.73;;;0.80;99.90;;;;;;6160839;23;20062;-84
2021/01/05 07:43:49;;;;;;;12.10;8.13;;;0.80;99.90;;;;;;6161053;23;20225;-85
2021/01/05 07:46:15;;;;;;;11.18;7.88;;;0.80;99.90;;;;;;6159752;23;20072;-85
2021/01/05 07:48:42;;;;;;;12.10;8.45;;;0.80;99.90;;;;;;6160462;23;20404;-84
2021/01/05 07:51:10;;;;;;;12.05;8.02;;;0.90;99.90;;;;;;6160673;23;20057;-85
2021/01/05 07:53:36;;;;;;;11.88;8.63;;;0.90;99.90;;;;;;6159752;23;20404;-84
2021/01/05 07:56:03;;;;;;;14.68;8.32;;;0.90;99.90;;;;;;6158191;23;20025;-84
2021/01/05 07:58:29;;;;;;;12.30;8.15;;;0.90;99.90;;;;;;6159960;23;20056;-84
2021/01/05 08:00:55;;;;;;;13.45;8.95;;;0.90;99.90;;;;;;6161571;23;20053;-84
2021/01/05 08:03:21;;;;;;;13.80;9.25;;;0.90;99.90;;;;;;6159000;23;20028;-85
2021/01/05 08:05:48;;;;;;;15.90;9.48;;;0.90;99.90;;;;;;6159798;23;20017;-84
2021/01/05 08:08:14;;;;;;;16.98;10.57;;;0.90;99.90;;;;;;6159196;23;20014;-85
2021/01/05 08:10:40;;;;;;;18.73;11.77;;;0.80;99.90;;;;;;6159520;23;20052;-84
2021/01/05 08:13:10;;;;;;;18.10;11.45;;;0.80;99.90;;;;;;6160461;23;20021;-84
2021/01/05 08:15:36;;;;;;;16.65;10.50;;;0.80;99.90;;;;;;6160454;23;20367;-84
2021/01/05 08:18:06;;;;;;;19.83;11.02;;;0.80;99.90;;;;;;6161307;23;20021;-84
2021/01/05 08:20:33;;;;;;;20.27;12.02;;;0.70;99.90;;;;;;6158708;23;20053;-85
2021/01/05 08:23:02;;;;;;;21.17;11.95;;;0.80;99.90;;;;;;6161531;23;20026;-85
2021/01/05 08:25:31;;;;;;;20.80;11.68;;;0.70;99.90;;;;;;6159280;23;20025;-84
2021/01/05 08:27:57;;;;;;;17.40;10.90;;;0.80;99.90;;;;;;6159094;23;20029;-85
2021/01/05 08:30:26;;;;;;;22.27;12.00;;;0.70;99.90;;;;;;6160311;23;20025;-84
2021/01/05 08:32:54;;;;;;;20.73;12.00;;;0.70;99.90;;;;;;6159529;23;20021;-85
2021/01/05 08:35:23;;;;;;;18.40;10.75;;;0.70;99.90;;;;;;6157375;23;20049;-84
2021/01/05 08:37:50;;;;;;;21.92;11.45;;;0.70;99.90;;;;;;6158881;23;20535;-84
2021/01/05 08:40:27;;;;;;;22.85;12.43;;;0.70;99.90;;;;;;6158085;23;20021;-84
2021/01/05 08:42:55;;;;;;;25.70;12.18;;;0.70;99.90;;;;;;6158037;23;20024;-85
2021/01/05 08:45:27;;;;;;;23.45;12.13;;;0.70;99.90;;;;;;6157929;23;20017;-84
2021/01/05 08:47:53;;;;;;;25.30;12.30;;;0.80;99.90;;;;;;6158821;23;20063;-84
2021/01/05 08:50:29;;;;;;;24.17;12.15;;;0.80;99.90;;;;;;6158781;23;20041;-84
2021/01/05 08:53:08;;;;;;;25.40;12.50;;;0.70;99.90;;;;;;6158172;23;20049;-84
2021/01/05 08:55:39;;;;;;;20.52;12.10;;;0.70;99.90;;;;;;6158249;23;20072;-85
2021/01/05 08:58:06;;;;;;;24.85;12.80;;;0.70;99.90;;;;;;6158067;23;20049;-84
2021/01/05 09:00:32;;;;;;;22.75;12.25;;;0.60;99.90;;;;;;6162006;23;20053;-84
2021/01/05 09:02:59;;;;;;;27.42;13.63;;;0.60;99.90;;;;;;6157579;23;20341;-85
2021/01/05 09:05:43;;;;;;;23.50;12.05;;;0.60;99.90;;;;;;6158507;23;20384;-84
2021/01/05 09:08:09;;;;;;;26.58;12.68;;;0.70;99.90;;;;;;6158743;23;20032;-84
2021/01/05 09:10:35;;;;;;;29.45;13.88;;;0.70;99.90;;;;;;6158320;23;20033;-84
2021/01/05 09:13:01;;;;;;;26.90;13.48;;;0.70;99.90;;;;;;6159023;23;20063;-84
2021/01/05 09:15:27;;;;;;;31.25;14.23;;;0.70;99.90;;;;;;6158638;23;20049;-84
2021/01/05 09:17:54;;;;;;;36.35;14.25;;;0.70;99.90;;;;;;6158331;23;20057;-85
2021/01/05 09:20:23;;;;;;;31.73;14.70;;;0.70;99.90;;;;;;6160265;23;20124;-84
2021/01/05 09:22:53;;;;;;;30.25;13.82;;;0.60;99.90;;;;;;6158909;23;20416;-83
2021/01/05 09:25:19;;;;;;;30.13;14.88;;;0.70;99.90;;;;;;6160516;23;20516;-84
2021/01/05 09:27:45;;;;;;;26.48;13.23;;;0.70;99.90;;;;;;6158508;23;20053;-84
2021/01/05 09:30:14;;;;;;;31.27;14.70;;;0.70;99.90;;;;;;6159401;23;20025;-84
2021/01/05 09:32:41;;;;;;;31.40;14.38;;;0.70;99.90;;;;;;6159697;23;20502;-84
2021/01/05 09:35:10;;;;;;;38.90;17.52;;;0.80;99.90;;;;;;6159264;23;20100;-84
2021/01/05 09:37:43;;;;;;;32.35;15.65;;;0.80;99.90;;;;;;6160706;23;20049;-84
2021/01/05 09:40:09;;;;;;;28.90;14.32;;;0.90;99.90;;;;;;6160593;23;20088;-84
2021/01/05 09:42:36;;;;;;;31.27;15.00;;;0.90;99.90;;;;;;6158502;23;20022;-84
2021/01/05 09:45:04;;;;;;;35.55;16.10;;;1.00;99.90;;;;;;6159246;23;20460;-84
2021/01/05 09:47:31;;;;;;;35.72;15.98;;;1.00;99.90;;;;;;6161765;23;20025;-84
2021/01/05 09:49:57;;;;;;;34.53;15.52;;;1.00;99.90;;;;;;6161199;23;20048;-84
2021/01/05 09:52:24;;;;;;;36.88;17.23;;;0.90;99.90;;;;;;6159789;23;20025;-84
2021/01/05 09:54:52;;;;;;;33.67;18.00;;;0.90;99.90;;;;;;6161004;23;20029;-84
2021/01/05 09:57:18;;;;;;;35.33;17.00;;;0.90;99.90;;;;;;6159682;23;20017;-84
2021/01/05 09:59:45;;;;;;;38.10;17.33;;;1.00;99.90;;;;;;6159869;23;20056;-83
2021/01/05 10:02:12;;;;;;;31.52;15.98;;;1.00;99.90;;;;;;6158159;23;20028;-83
2021/01/05 10:04:39;;;;;;;30.67;16.30;;;1.00;99.90;;;;;;6157850;23;20100;-82
2021/01/05 10:07:05;;;;;;;33.50;16.15;;;1.00;99.90;;;;;;6157407;23;20049;-83
2021/01/05 10:09:33;;;;;;;37.58;17.92;;;0.90;99.90;;;;;;6156130;23;20067;-83
2021/01/05 10:11:59;;;;;;;35.50;17.52;;;1.00;99.90;;;;;;6158672;23;20025;-83
2021/01/05 10:14:25;;;;;;;34.65;17.10;;;0.90;99.90;;;;;;6160453;23;20025;-83
2021/01/05 10:16:56;;;;;;;40.70;18.20;;;0.90;99.90;;;;;;6158945;23;20084;-83
2021/01/05 10:19:24;;;;;;;41.17;18.38;;;0.90;99.90;;;;;;6157526;23;20174;-83
2021/01/05 10:21:51;;;;;;;37.20;18.20;;;0.90;99.90;;;;;;6159981;23;20353;-83
2021/01/05 10:24:18;;;;;;;29.30;16.83;;;0.90;99.90;;;;;;6158397;23;20052;-82
2021/01/05 10:26:55;;;;;;;35.40;18.10;;;1.00;99.90;;;;;;6158019;23;20460;-83
2021/01/05 10:29:23;;;;;;;32.28;17.17;;;0.90;99.90;;;;;;6161080;23;20096;-82
2021/01/05 10:31:49;;;;;;;33.50;17.52;;;1.00;99.90;;;;;;6157980;23;20021;-82
2021/01/05 10:34:19;;;;;;;32.08;17.83;;;1.00;99.90;;;;;;6157469;23;20025;-82
2021/01/05 10:36:50;;;;;;;32.50;16.55;;;0.90;99.90;;;;;;6157483;23;20476;-82
2021/01/05 10:39:16;;;;;;;30.35;15.82;;;0.90;99.90;;;;;;6159993;23;20033;-82
2021/01/05 10:41:44;;;;;;;33.50;17.23;;;1.00;99.90;;;;;;6156467;23;20018;-82
2021/01/05 10:44:13;;;;;;;34.78;17.52;;;0.90;99.90;;;;;;6156299;23;20025;-82
2021/01/05 10:46:39;;;;;;;27.67;16.17;;;1.00;99.90;;;;;;6156091;23;20032;-82
2021/01/05 10:49:06;;;;;;;37.45;16.75;;;1.00;99.90;;;;;;6158893;23;20084;-81
2021/01/05 10:51:32;;;;;;;28.00;14.90;;;1.00;99.90;;;;;;6157611;23;20053;-81
2021/01/05 10:53:58;;;;;;;29.25;13.95;;;0.90;99.90;;;;;;6155173;23;20025;-80
2021/01/05 10:56:25;;;;;;;28.45;15.73;;;1.00;99.90;;;;;;6157337;23;20018;-82
2021/01/05 10:58:51;;;;;;;28.55;14.95;;;1.00;99.90;;;;;;6154020;23;20072;-82
2021/01/05 11:01:18;;;;;;;27.20;14.60;;;1.00;99.90;;;;;;6153393;23;20478;-82
2021/01/05 11:03:44;;;;;;;30.55;16.20;;;1.10;99.90;;;;;;6154835;23;20414;-81
2021/01/05 11:06:11;;;;;;;25.50;14.57;;;1.00;99.90;;;;;;6156204;23;20406;-82
2021/01/05 11:08:37;;;;;;;28.42;14.95;;;1.00;99.90;;;;;;6157263;23;20021;-82
2021/01/05 11:11:05;;;;;;;26.70;15.38;;;1.00;99.90;;;;;;6157967;23;20026;-81
2021/01/05 11:13:32;;;;;;;24.77;14.45;;;1.00;99.90;;;;;;6156442;23;20057;-82
2021/01/05 11:15:58;;;;;;;27.83;15.88;;;1.00;99.90;;;;;;6155891;23;20023;-81
2021/01/05 11:18:25;;;;;;;35.80;19.67;;;1.10;99.90;;;;;;6156439;23;20412;-82
2021/01/05 11:20:51;;;;;;;35.53;20.67;;;1.10;99.90;;;;;;6157335;23;20325;-82
2021/01/05 11:23:18;;;;;;;41.78;23.75;;;1.00;99.90;;;;;;6156568;23;20085;-81
2021/01/05 11:25:45;;;;;;;30.23;18.25;;;1.00;99.90;;;;;;6155843;23;20022;-81
2021/01/05 11:28:11;;;;;;;31.58;17.10;;;0.90;99.90;;;;;;6155548;23;20055;-81
2021/01/05 11:30:38;;;;;;;35.55;18.17;;;1.00;99.90;;;;;;6155643;23;20076;-82
2021/01/05 11:33:05;;;;;;;81.10;44.80;;;1.00;99.90;;;;;;6155260;23;20048;-81
2021/01/05 11:35:31;;;;;;;34.42;23.10;;;0.90;99.90;;;;;;6156268;23;20064;-82
2021/01/05 11:37:57;;;;;;;32.22;18.75;;;1.00;99.90;;;;;;6156536;23;20340;-81
2021/01/05 11:40:24;;;;;;;35.42;23.50;;;1.00;99.90;;;;;;6155408;23;20080;-81
2021/01/05 11:42:50;;;;;;;26.75;15.90;;;1.00;99.90;;;;;;6155498;23;20033;-82
2021/01/05 11:45:17;;;;;;;29.77;16.88;;;1.00;99.90;;;;;;6155885;23;20024;-82
2021/01/05 11:47:44;;;;;;;35.05;21.33;;;1.00;99.90;;;;;;6155485;23;20049;-81
2021/01/05 11:50:11;;;;;;;32.90;19.23;;;1.00;99.90;;;;;;6155725;23;20061;-82
2021/01/05 11:52:38;;;;;;;28.38;16.70;;;1.10;99.90;;;;;;6157914;23;20061;-82
2021/01/05 11:55:07;;;;;;;37.83;17.80;;;1.10;99.90;;;;;;6156325;23;20025;-82
2021/01/05 11:57:33;;;;;;;89.82;47.13;;;1.10;99.90;;;;;;6156197;23;20021;-82
2021/01/05 12:00:00;;;;;;;261.80;106.75;;;1.10;99.90;;;;;;6157215;23;20028;-82
2021/01/05 12:02:26;;;;;;;318.65;137.57;;;1.00;99.90;;;;;;6159857;23;20017;-82
2021/01/05 12:04:52;;;;;;;369.15;165.57;;;1.00;99.90;;;;;;6187135;23;20021;-82
2021/01/05 12:07:22;;;;;;;566.83;292.40;;;1.00;99.90;;;;;;6187582;23;20025;-83
2021/01/05 12:09:49;;;;;;;101.32;44.97;;;1.00;99.90;;;;;;6161737;23;20053;-83
2021/01/05 12:12:15;;;;;;;501.25;265.05;;;1.00;99.90;;;;;;6161388;23;20025;-83
2021/01/05 12:14:41;;;;;;;70.35;34.92;;;1.00;99.90;;;;;;6186832;23;20025;-83
2021/01/05 12:17:07;;;;;;;67.22;34.00;;;1.10;99.90;;;;;;6161192;23;20049;-82
2021/01/05 12:19:41;;;;;;;233.25;126.13;;;1.10;99.90;;;;;;6161389;23;20091;-82
2021/01/05 12:22:09;;;;;;;87.75;47.50;;;1.10;99.90;;;;;;6160904;23;20052;-82
2021/01/05 12:24:37;;;;;;;90.30;54.88;;;1.00;99.90;;;;;;6159566;23;20060;-81
2021/01/05 12:27:06;;;;;;;42.40;20.27;;;1.00;99.90;;;;;;6160574;23;20056;-82
2021/01/05 12:29:37;;;;;;;61.92;41.53;;;1.00;99.90;;;;;;6186526;23;20096;-82
2021/01/05 12:32:09;;;;;;;42.10;24.70;;;1.00;99.90;;;;;;6186879;23;20079;-81
2021/01/05 12:34:39;;;;;;;29.15;17.30;;;1.00;99.90;;;;;;6186856;23;20410;-82
2021/01/05 12:37:10;;;;;;;32.88;18.70;;;0.90;99.90;;;;;;6186704;23;20024;-82
2021/01/05 12:39:37;;;;;;;33.35;17.17;;;1.00;99.90;;;;;;6160533;23;20460;-81
2021/01/05 12:42:10;;;;;;;28.08;16.23;;;1.00;99.90;;;;;;6160520;23;20021;-81
2021/01/05 12:44:37;;;;;;;34.67;20.17;;;1.00;99.90;;;;;;6186085;23;20092;-82
2021/01/05 12:47:04;;;;;;;36.75;20.60;;;1.00;99.90;;;;;;6160562;23;20100;-81
2021/01/05 12:49:30;;;;;;;41.30;22.00;;;0.90;99.90;;;;;;6185423;23;20029;-81
2021/01/05 12:51:56;;;;;;;98.68;53.45;;;0.90;99.90;;;;;;6185695;23;20075;-81
2021/01/05 12:54:26;;;;;;;60.72;32.08;;;0.90;99.90;;;;;;6185286;23;20025;-81
2021/01/05 12:57:05;;;;;;;92.80;50.20;;;0.90;99.90;;;;;;6185639;23;20020;-82
2021/01/05 12:59:32;;;;;;;55.22;28.38;;;0.90;99.90;;;;;;6185566;23;20123;-82